EZY59 EGFF-EGFF
Flight info
| Callsign | EZY59 |
|---|---|
| Flight time | 0h 44m |
| Altitude | 5000 |
| Route | BCN |
| Aircraft | A320/M-SDE3FGHIRWY/LB1 |
Departure
| Time | 2026-05-04 19:19 |
|---|---|
| Airport | Cardiff International Airport (EGFF) |
Arrival
| Time | 2026-05-04 20:03 |
|---|---|
| Airport | Cardiff International Airport (EGFF) |
| Time | Latitude | Longitude | Altitude | Speed | Heading |
|---|---|---|---|---|---|
| 2026-05-04 18:43 | 51.39766 | -3.33838 | 229 ft | 0 kts | 81° |
| 2026-05-04 18:48 | 51.39766 | -3.33839 | 229 ft | 0 kts | 81° |
| 2026-05-04 18:50 | 51.39765 | -3.33839 | 229 ft | 0 kts | 81° |
| 2026-05-04 18:51 | 51.39766 | -3.33839 | 229 ft | 0 kts | 81° |
| 2026-05-04 18:51 | 51.39765 | -3.33839 | 229 ft | 0 kts | 81° |
| 2026-05-04 18:51 | 51.39766 | -3.33839 | 229 ft | 0 kts | 81° |
| 2026-05-04 18:51 | 51.39765 | -3.33839 | 229 ft | 0 kts | 81° |
| 2026-05-04 19:10 | 51.39765 | -3.33840 | 229 ft | 0 kts | 81° |
| 2026-05-04 19:11 | 51.39765 | -3.33839 | 229 ft | 0 kts | 81° |
| 2026-05-04 19:11 | 51.39764 | -3.33837 | 229 ft | 1 kts | 101° |
| 2026-05-04 19:11 | 51.39747 | -3.33841 | 229 ft | 3 kts | 195° |
| 2026-05-04 19:11 | 51.39733 | -3.33867 | 229 ft | 3 kts | 237° |
| 2026-05-04 19:12 | 51.39724 | -3.33904 | 229 ft | 4 kts | 257° |
| 2026-05-04 19:12 | 51.39739 | -3.33996 | 230 ft | 5 kts | 295° |
| 2026-05-04 19:12 | 51.39762 | -3.34068 | 229 ft | 10 kts | 297° |
| 2026-05-04 19:13 | 51.39793 | -3.34167 | 229 ft | 10 kts | 297° |
| 2026-05-04 19:13 | 51.39825 | -3.34268 | 231 ft | 10 kts | 297° |
| 2026-05-04 19:13 | 51.39858 | -3.34371 | 230 ft | 11 kts | 297° |
| 2026-05-04 19:13 | 51.39892 | -3.34478 | 229 ft | 11 kts | 296° |
| 2026-05-04 19:14 | 51.39926 | -3.34586 | 229 ft | 11 kts | 297° |
| 2026-05-04 19:14 | 51.39961 | -3.34696 | 230 ft | 11 kts | 297° |
| 2026-05-04 19:14 | 51.39996 | -3.34810 | 229 ft | 12 kts | 296° |
| 2026-05-04 19:14 | 51.40032 | -3.34926 | 230 ft | 12 kts | 297° |
| 2026-05-04 19:15 | 51.40070 | -3.35043 | 231 ft | 12 kts | 297° |
| 2026-05-04 19:15 | 51.40108 | -3.35161 | 229 ft | 12 kts | 297° |
| 2026-05-04 19:15 | 51.40144 | -3.35281 | 230 ft | 12 kts | 293° |
| 2026-05-04 19:15 | 51.40152 | -3.35386 | 228 ft | 7 kts | 261° |
| 2026-05-04 19:16 | 51.40140 | -3.35437 | 228 ft | 0 kts | 242° |
| 2026-05-04 19:16 | 51.40137 | -3.35445 | 230 ft | 5 kts | 242° |
| 2026-05-04 19:16 | 51.40101 | -3.35499 | 225 ft | 10 kts | 207° |
| 2026-05-04 19:16 | 51.40033 | -3.35503 | 220 ft | 9 kts | 131° |
| 2026-05-04 19:17 | 51.40017 | -3.35455 | 220 ft | 0 kts | 117° |
| 2026-05-04 19:18 | 51.40016 | -3.35451 | 220 ft | 1 kts | 117° |
| 2026-05-04 19:18 | 51.39980 | -3.35338 | 220 ft | 41 kts | 117° |
| 2026-05-04 19:18 | 51.39689 | -3.34424 | 241 ft | 144 kts | 117° |
| 2026-05-04 19:19 | 51.39163 | -3.32847 | 1056 ft | 174 kts | 120° |
| 2026-05-04 19:19 | 51.38478 | -3.31088 | 1790 ft | 202 kts | 120° |
| 2026-05-04 19:19 | 51.37690 | -3.29092 | 2665 ft | 219 kts | 121° |
| 2026-05-04 19:19 | 51.36811 | -3.27031 | 3641 ft | 232 kts | 131° |
| 2026-05-04 19:20 | 51.35410 | -3.25762 | 3913 ft | 236 kts | 170° |
| 2026-05-04 19:20 | 51.33804 | -3.26146 | 4024 ft | 239 kts | 208° |
| 2026-05-04 19:20 | 51.32673 | -3.28017 | 3932 ft | 235 kts | 246° |
| 2026-05-04 19:20 | 51.32524 | -3.30495 | 3732 ft | 222 kts | 287° |
| 2026-05-04 19:21 | 51.33090 | -3.32724 | 3438 ft | 219 kts | 297° |
| 2026-05-04 19:21 | 51.33767 | -3.34910 | 3055 ft | 220 kts | 298° |
| 2026-05-04 19:21 | 51.34369 | -3.37131 | 2998 ft | 218 kts | 293° |
| 2026-05-04 19:21 | 51.34916 | -3.39408 | 3009 ft | 215 kts | 292° |
| 2026-05-04 19:22 | 51.35418 | -3.41583 | 2975 ft | 202 kts | 292° |
| 2026-05-04 19:22 | 51.35886 | -3.43638 | 2967 ft | 192 kts | 291° |
| 2026-05-04 19:22 | 51.36331 | -3.45589 | 2947 ft | 182 kts | 295° |
| 2026-05-04 19:22 | 51.36828 | -3.47376 | 2933 ft | 172 kts | 293° |
| 2026-05-04 19:23 | 51.37283 | -3.49232 | 3082 ft | 189 kts | 293° |
| 2026-05-04 19:23 | 51.37812 | -3.51277 | 3113 ft | 207 kts | 295° |
| 2026-05-04 19:23 | 51.38394 | -3.53416 | 3053 ft | 210 kts | 295° |
| 2026-05-04 19:23 | 51.38992 | -3.55547 | 2997 ft | 208 kts | 296° |
| 2026-05-04 19:24 | 51.39590 | -3.57614 | 2929 ft | 202 kts | 296° |
| 2026-05-04 19:24 | 51.40183 | -3.59608 | 2906 ft | 195 kts | 297° |
| 2026-05-04 19:24 | 51.40772 | -3.61530 | 2939 ft | 189 kts | 298° |
| 2026-05-04 19:24 | 51.41613 | -3.63087 | 2950 ft | 190 kts | 331° |
| 2026-05-04 19:25 | 51.42821 | -3.63639 | 2958 ft | 175 kts | 5° |
| 2026-05-04 19:25 | 51.43964 | -3.63158 | 2953 ft | 174 kts | 31° |
| 2026-05-04 19:25 | 51.44834 | -3.61828 | 2985 ft | 176 kts | 59° |
| 2026-05-04 19:25 | 51.45215 | -3.59990 | 3000 ft | 173 kts | 78° |
| 2026-05-04 19:26 | 51.45477 | -3.58073 | 3014 ft | 179 kts | 76° |
| 2026-05-04 19:26 | 51.45766 | -3.56117 | 3006 ft | 180 kts | 77° |
| 2026-05-04 19:26 | 51.45781 | -3.54063 | 2780 ft | 189 kts | 102° |
| 2026-05-04 19:26 | 51.45270 | -3.52122 | 2518 ft | 191 kts | 116° |
| 2026-05-04 19:27 | 51.44672 | -3.50261 | 2238 ft | 183 kts | 115° |
| 2026-05-04 19:27 | 51.44108 | -3.48482 | 1987 ft | 175 kts | 115° |
| 2026-05-04 19:27 | 51.43577 | -3.46798 | 1769 ft | 170 kts | 115° |
| 2026-05-04 19:27 | 51.43067 | -3.45178 | 1592 ft | 156 kts | 115° |
| 2026-05-04 19:28 | 51.42603 | -3.43696 | 1433 ft | 144 kts | 114° |
| 2026-05-04 19:28 | 51.42149 | -3.42248 | 1193 ft | 146 kts | 114° |
| 2026-05-04 19:28 | 51.41693 | -3.40800 | 965 ft | 145 kts | 115° |
| 2026-05-04 19:28 | 51.41255 | -3.39406 | 768 ft | 136 kts | 115° |
| 2026-05-04 19:29 | 51.40826 | -3.38039 | 585 ft | 137 kts | 115° |
| 2026-05-04 19:29 | 51.40392 | -3.36658 | 393 ft | 140 kts | 115° |
| 2026-05-04 19:29 | 51.39967 | -3.35301 | 255 ft | 129 kts | 114° |
| 2026-05-04 19:29 | 51.39619 | -3.34172 | 243 ft | 106 kts | 116° |
| 2026-05-04 19:30 | 51.39206 | -3.32844 | 777 ft | 153 kts | 115° |
| 2026-05-04 19:30 | 51.38684 | -3.31209 | 1817 ft | 171 kts | 115° |
| 2026-05-04 19:30 | 51.38099 | -3.29462 | 2706 ft | 182 kts | 116° |
| 2026-05-04 19:30 | 51.37490 | -3.27661 | 3664 ft | 190 kts | 116° |
| 2026-05-04 19:31 | 51.36859 | -3.25767 | 3931 ft | 194 kts | 118° |
| 2026-05-04 19:31 | 51.35904 | -3.24313 | 4005 ft | 195 kts | 158° |
| 2026-05-04 19:31 | 51.34569 | -3.24284 | 3997 ft | 197 kts | 203° |
| 2026-05-04 19:31 | 51.33567 | -3.25723 | 4032 ft | 197 kts | 241° |
| 2026-05-04 19:32 | 51.33157 | -3.27771 | 4045 ft | 197 kts | 267° |
| 2026-05-04 19:32 | 51.33263 | -3.29934 | 4027 ft | 195 kts | 283° |
| 2026-05-04 19:32 | 51.33566 | -3.32043 | 3902 ft | 194 kts | 288° |
| 2026-05-04 19:32 | 51.34012 | -3.34075 | 3622 ft | 193 kts | 293° |
| 2026-05-04 19:33 | 51.34503 | -3.36074 | 3353 ft | 193 kts | 294° |
| 2026-05-04 19:33 | 51.34997 | -3.38067 | 3088 ft | 193 kts | 292° |
| 2026-05-04 19:33 | 51.35469 | -3.40060 | 2988 ft | 192 kts | 293° |
| 2026-05-04 19:33 | 51.35974 | -3.42052 | 3015 ft | 194 kts | 294° |
| 2026-05-04 19:34 | 51.36493 | -3.44014 | 3014 ft | 194 kts | 294° |
| 2026-05-04 19:34 | 51.36958 | -3.46046 | 3043 ft | 195 kts | 291° |
| 2026-05-04 19:34 | 51.37420 | -3.48085 | 3019 ft | 195 kts | 292° |
| 2026-05-04 19:34 | 51.37893 | -3.50119 | 3016 ft | 195 kts | 292° |
| 2026-05-04 19:35 | 51.38369 | -3.52147 | 3038 ft | 195 kts | 292° |
| 2026-05-04 19:35 | 51.38853 | -3.54171 | 3025 ft | 195 kts | 292° |
| 2026-05-04 19:35 | 51.39354 | -3.56185 | 3017 ft | 195 kts | 294° |
| 2026-05-04 19:35 | 51.39868 | -3.58189 | 3012 ft | 194 kts | 293° |
| 2026-05-04 19:36 | 51.40378 | -3.60161 | 3004 ft | 194 kts | 295° |
| 2026-05-04 19:36 | 51.40936 | -3.62130 | 3004 ft | 194 kts | 298° |
| 2026-05-04 19:36 | 51.41793 | -3.63738 | 2999 ft | 190 kts | 332° |
| 2026-05-04 19:36 | 51.43044 | -3.64172 | 2999 ft | 185 kts | 11° |
| 2026-05-04 19:37 | 51.44195 | -3.63334 | 3003 ft | 184 kts | 44° |
| 2026-05-04 19:37 | 51.44935 | -3.61683 | 3000 ft | 184 kts | 63° |
| 2026-05-04 19:37 | 51.45457 | -3.59789 | 2829 ft | 187 kts | 70° |
| 2026-05-04 19:37 | 51.45702 | -3.57771 | 2652 ft | 183 kts | 88° |
| 2026-05-04 19:38 | 51.45656 | -3.55766 | 2546 ft | 177 kts | 93° |
| 2026-05-04 19:38 | 51.45468 | -3.53860 | 2384 ft | 174 kts | 102° |
| 2026-05-04 19:38 | 51.45119 | -3.51990 | 2214 ft | 176 kts | 108° |
| 2026-05-04 19:38 | 51.44661 | -3.50189 | 2131 ft | 170 kts | 112° |
| 2026-05-04 19:39 | 51.44171 | -3.48583 | 2114 ft | 157 kts | 116° |
| 2026-05-04 19:39 | 51.43662 | -3.47048 | 1972 ft | 156 kts | 116° |
| 2026-05-04 19:39 | 51.43173 | -3.45510 | 1825 ft | 153 kts | 114° |
| 2026-05-04 19:39 | 51.42701 | -3.43970 | 1664 ft | 155 kts | 114° |
| 2026-05-04 19:40 | 51.42219 | -3.42447 | 1467 ft | 152 kts | 115° |
| 2026-05-04 19:40 | 51.41758 | -3.40988 | 1313 ft | 144 kts | 114° |
| 2026-05-04 19:40 | 51.41314 | -3.39551 | 1088 ft | 145 kts | 116° |
| 2026-05-04 19:40 | 51.40846 | -3.38101 | 774 ft | 148 kts | 114° |
| 2026-05-04 19:41 | 51.40395 | -3.36651 | 432 ft | 144 kts | 116° |
| 2026-05-04 19:41 | 51.39945 | -3.35229 | 251 ft | 141 kts | 115° |
| 2026-05-04 19:41 | 51.39550 | -3.33980 | 225 ft | 109 kts | 117° |
| 2026-05-04 19:41 | 51.39163 | -3.32753 | 367 ft | 154 kts | 116° |
| 2026-05-04 19:42 | 51.38613 | -3.31012 | 920 ft | 185 kts | 115° |
| 2026-05-04 19:42 | 51.37920 | -3.29339 | 1371 ft | 185 kts | 138° |
| 2026-05-04 19:42 | 51.36727 | -3.28601 | 1654 ft | 191 kts | 177° |
| 2026-05-04 19:42 | 51.35465 | -3.29228 | 1907 ft | 195 kts | 216° |
| 2026-05-04 19:43 | 51.34638 | -3.30922 | 2159 ft | 196 kts | 249° |
| 2026-05-04 19:43 | 51.34465 | -3.33052 | 2425 ft | 195 kts | 280° |
| 2026-05-04 19:43 | 51.34832 | -3.35132 | 2589 ft | 194 kts | 291° |
| 2026-05-04 19:43 | 51.35280 | -3.37160 | 2758 ft | 193 kts | 292° |
| 2026-05-04 19:44 | 51.35761 | -3.39170 | 2924 ft | 194 kts | 294° |
| 2026-05-04 19:44 | 51.36286 | -3.41153 | 2894 ft | 193 kts | 296° |
| 2026-05-04 19:44 | 51.36847 | -3.43069 | 2893 ft | 193 kts | 298° |
| 2026-05-04 19:44 | 51.37462 | -3.44974 | 2898 ft | 193 kts | 300° |
| 2026-05-04 19:45 | 51.38053 | -3.46901 | 2893 ft | 193 kts | 292° |
| 2026-05-04 19:45 | 51.38536 | -3.48912 | 2889 ft | 194 kts | 294° |
| 2026-05-04 19:45 | 51.39059 | -3.50897 | 2884 ft | 194 kts | 295° |
| 2026-05-04 19:45 | 51.39622 | -3.52854 | 2867 ft | 193 kts | 297° |
| 2026-05-04 19:46 | 51.40016 | -3.54131 | 2866 ft | 193 kts | 299° |
| 2026-05-04 19:46 | 51.40637 | -3.56032 | 2850 ft | 190 kts | 300° |
| 2026-05-04 19:46 | 51.41283 | -3.57900 | 2842 ft | 194 kts | 301° |
| 2026-05-04 19:46 | 51.41971 | -3.59794 | 2853 ft | 198 kts | 303° |
| 2026-05-04 19:47 | 51.42839 | -3.61460 | 2865 ft | 195 kts | 324° |
| 2026-05-04 19:47 | 51.44033 | -3.62378 | 2844 ft | 188 kts | 351° |
| 2026-05-04 19:47 | 51.45712 | -3.62117 | 2744 ft | 186 kts | 25° |
| 2026-05-04 19:47 | 51.46758 | -3.60887 | 2554 ft | 190 kts | 50° |
| 2026-05-04 19:48 | 51.47217 | -3.59693 | 2413 ft | 191 kts | 70° |
| 2026-05-04 19:48 | 51.47360 | -3.57619 | 2255 ft | 187 kts | 99° |
| 2026-05-04 19:48 | 51.46821 | -3.55776 | 2112 ft | 182 kts | 123° |
| 2026-05-04 19:48 | 51.46097 | -3.54135 | 1968 ft | 177 kts | 123° |
| 2026-05-04 19:49 | 51.45231 | -3.51998 | 1824 ft | 168 kts | 116° |
| 2026-05-04 19:49 | 51.44884 | -3.50884 | 1773 ft | 163 kts | 115° |
| 2026-05-04 19:49 | 51.44371 | -3.49316 | 1706 ft | 155 kts | 116° |
| 2026-05-04 19:49 | 51.43892 | -3.47823 | 1678 ft | 151 kts | 113° |
| 2026-05-04 19:50 | 51.43442 | -3.46303 | 1603 ft | 150 kts | 114° |
| 2026-05-04 19:50 | 51.42971 | -3.44820 | 1514 ft | 150 kts | 116° |
| 2026-05-04 19:50 | 51.42485 | -3.43339 | 1433 ft | 150 kts | 114° |
| 2026-05-04 19:50 | 51.42027 | -3.41816 | 1214 ft | 150 kts | 114° |
| 2026-05-04 19:51 | 51.41574 | -3.40399 | 1036 ft | 139 kts | 116° |
| 2026-05-04 19:51 | 51.41129 | -3.38988 | 818 ft | 145 kts | 115° |
| 2026-05-04 19:51 | 51.40677 | -3.37532 | 544 ft | 147 kts | 116° |
| 2026-05-04 19:51 | 51.40221 | -3.36104 | 314 ft | 141 kts | 116° |
| 2026-05-04 19:52 | 51.39805 | -3.34794 | 229 ft | 122 kts | 115° |
| 2026-05-04 19:52 | 51.39457 | -3.33681 | 228 ft | 122 kts | 117° |
| 2026-05-04 19:52 | 51.38972 | -3.32140 | 702 ft | 179 kts | 115° |
| 2026-05-04 19:52 | 51.38367 | -3.30352 | 993 ft | 181 kts | 122° |
| 2026-05-04 19:53 | 51.37489 | -3.28932 | 1229 ft | 183 kts | 148° |
| 2026-05-04 19:53 | 51.36264 | -3.28360 | 1463 ft | 188 kts | 176° |
| 2026-05-04 19:53 | 51.34973 | -3.28768 | 1668 ft | 192 kts | 204° |
| 2026-05-04 19:53 | 51.33903 | -3.30055 | 1825 ft | 195 kts | 230° |
| 2026-05-04 19:54 | 51.33312 | -3.31976 | 1942 ft | 195 kts | 261° |
| 2026-05-04 19:54 | 51.33393 | -3.34069 | 2094 ft | 192 kts | 290° |
| 2026-05-04 19:54 | 51.33831 | -3.36084 | 2242 ft | 192 kts | 292° |
| 2026-05-04 19:54 | 51.34273 | -3.38109 | 2393 ft | 193 kts | 290° |
| 2026-05-04 19:55 | 51.34719 | -3.40134 | 2557 ft | 193 kts | 293° |
| 2026-05-04 19:55 | 51.35225 | -3.42116 | 2760 ft | 193 kts | 295° |
| 2026-05-04 19:55 | 51.35751 | -3.44093 | 2932 ft | 194 kts | 296° |
| 2026-05-04 19:55 | 51.36296 | -3.46066 | 2935 ft | 194 kts | 295° |
| 2026-05-04 19:56 | 51.36854 | -3.48025 | 2921 ft | 193 kts | 297° |
| 2026-05-04 19:56 | 51.37442 | -3.49957 | 2903 ft | 193 kts | 298° |
| 2026-05-04 19:56 | 51.38049 | -3.51837 | 2899 ft | 193 kts | 299° |
| 2026-05-04 19:56 | 51.38649 | -3.53755 | 2888 ft | 193 kts | 298° |
| 2026-05-04 19:57 | 51.39246 | -3.55673 | 2877 ft | 193 kts | 298° |
| 2026-05-04 19:57 | 51.39863 | -3.57578 | 2877 ft | 193 kts | 300° |
| 2026-05-04 19:57 | 51.40495 | -3.59469 | 2878 ft | 192 kts | 300° |
| 2026-05-04 19:57 | 51.41163 | -3.61323 | 2855 ft | 191 kts | 309° |
| 2026-05-04 19:58 | 51.42171 | -3.62647 | 2805 ft | 188 kts | 339° |
| 2026-05-04 19:58 | 51.43430 | -3.62992 | 2740 ft | 184 kts | 8° |
| 2026-05-04 19:58 | 51.44592 | -3.62311 | 2666 ft | 181 kts | 37° |
| 2026-05-04 19:58 | 51.45434 | -3.60835 | 2573 ft | 180 kts | 62° |
| 2026-05-04 19:59 | 51.45779 | -3.58938 | 2516 ft | 179 kts | 87° |
| 2026-05-04 19:59 | 51.45667 | -3.56944 | 2368 ft | 179 kts | 97° |
| 2026-05-04 19:59 | 51.45442 | -3.54978 | 2242 ft | 179 kts | 102° |
| 2026-05-04 19:59 | 51.45099 | -3.53056 | 2023 ft | 180 kts | 107° |
| 2026-05-04 20:00 | 51.44689 | -3.51189 | 1809 ft | 173 kts | 109° |
| 2026-05-04 20:00 | 51.44245 | -3.49465 | 1619 ft | 162 kts | 111° |
| 2026-05-04 20:00 | 51.43812 | -3.47822 | 1496 ft | 157 kts | 111° |
| 2026-05-04 20:00 | 51.43396 | -3.46282 | 1433 ft | 152 kts | 112° |
| 2026-05-04 20:01 | 51.42951 | -3.44793 | 1334 ft | 145 kts | 114° |
| 2026-05-04 20:01 | 51.42511 | -3.43366 | 1213 ft | 142 kts | 114° |
| 2026-05-04 20:01 | 51.42076 | -3.41947 | 986 ft | 142 kts | 114° |
| 2026-05-04 20:01 | 51.41621 | -3.40546 | 825 ft | 143 kts | 116° |
| 2026-05-04 20:02 | 51.41175 | -3.39115 | 661 ft | 143 kts | 115° |
| 2026-05-04 20:02 | 51.40730 | -3.37682 | 470 ft | 145 kts | 115° |
| 2026-05-04 20:02 | 51.40268 | -3.36252 | 337 ft | 146 kts | 116° |
| 2026-05-04 20:02 | 51.39822 | -3.34830 | 230 ft | 133 kts | 116° |
| 2026-05-04 20:03 | 51.39457 | -3.33682 | 226 ft | 91 kts | 116° |
| 2026-05-04 20:03 | 51.39267 | -3.33079 | 228 ft | 33 kts | 118° |
| 2026-05-04 20:03 | 51.39196 | -3.32851 | 225 ft | 7 kts | 98° |
| 2026-05-04 20:03 | 51.39228 | -3.32808 | 226 ft | 8 kts | 30° |
| 2026-05-04 20:04 | 51.39282 | -3.32824 | 229 ft | 10 kts | 319° |
| 2026-05-04 20:04 | 51.39305 | -3.32860 | 228 ft | 0 kts | 314° |